Terminal Aerodrome Forecast
Issued by NWS Amarillo, TX

Home | Current Version | Previous Version | Text Only | Print | Product List | Glossary On
Versions: 1 2 3 4 5 6 7 8 9 10 11 12 13 14
000
FTUS44 KAMA 261100
TAFDHT
TAF
KDHT 261139Z 2612/2712 03010KT P6SM SCT010 SCT120 BKN300
     FM261500 08013KT P6SM SCT020 BKN100 OVC300
     FM262100 07019G29KT P6SM VCTS BKN030CB
     FM270200 04021G31KT 4SM TSRA BR OVC010CB
     FM270500 02021G31KT 5SM -SHRA BR OVC007=

USA.gov is the U.S. government's official web portal to all federal, state and local government web resources and services.